GBG weather

Galesburg Municipal Airport
Galesburg, Illinois, United States

Public forecast

Using degrees Fahrenheit for public forecast. Weather courtesy of forecast.io.

Current aviation weather report (METAR) for Galesburg Municipal Airport

Retrieved 2020/02/18 12:35 UTC (0 seconds ago):

KGBG 181235Z AUTO 30016G21KT 10SM OVC012 00/M03 A3012 RMK AO2 T10051033

Closest aviation forecast (TAF) to Galesburg Municipal Airport

Closest forecast is Quad City International Airport, 30.8 nm (57.1 km) N. Retrieved 2020/02/18 12:28 UTC (0 seconds ago):

TAF KMLI 181126Z 1812/1912 29015G27KT P6SM OVC014 FM181400 31012G18KT P6SM SCT015 FM190000 34008KT P6SM FEW025